createdAt,value
2023-03-16T00:00:42.921Z,2.47
2023-03-16T00:03:19.134Z,2.70
2023-03-16T00:05:49.209Z,2.40
2023-03-16T00:08:19.305Z,2.40
2023-03-16T00:10:49.325Z,2.60
2023-03-16T00:13:19.018Z,2.43
2023-03-16T00:15:52.799Z,2.90
2023-03-16T00:18:27.263Z,2.30
2023-03-16T00:20:58.164Z,2.83
2023-03-16T00:23:29.795Z,2.73
2023-03-16T00:25:59.683Z,2.03
2023-03-16T00:28:30.231Z,2.23
2023-03-16T00:31:00.349Z,2.50
2023-03-16T00:33:34.776Z,2.33
2023-03-16T00:36:08.307Z,2.30
2023-03-16T00:38:38.436Z,2.87
2023-03-16T00:41:09.229Z,2.37
2023-03-16T00:43:41.340Z,2.30
2023-03-16T00:46:12.162Z,2.50
2023-03-16T00:48:45.128Z,2.47
2023-03-16T00:51:15.557Z,2.70
2023-03-16T00:53:45.656Z,2.50
2023-03-16T00:56:15.568Z,2.70
2023-03-16T00:58:45.525Z,2.30
2023-03-16T01:01:16.399Z,2.83
2023-03-16T01:03:48.446Z,2.03
2023-03-16T01:06:20.626Z,2.30
2023-03-16T01:11:21.049Z,2.20
2023-03-16T01:13:54.340Z,2.10
2023-03-16T01:16:24.051Z,2.10
2023-03-16T01:18:56.989Z,2.30
2023-03-16T01:21:29.433Z,2.60
2023-03-16T01:23:58.695Z,2.30
2023-03-16T01:26:28.067Z,2.10
2023-03-16T01:28:57.282Z,2.63
2023-03-16T01:31:28.167Z,2.40
2023-03-16T01:34:00.983Z,2.10
2023-03-16T01:36:32.770Z,2.20
2023-03-16T01:39:05.142Z,2.53
2023-03-16T01:41:38.778Z,2.40
2023-03-16T01:44:07.987Z,2.20
2023-03-16T01:46:37.409Z,2.60
2023-03-16T01:49:10.668Z,2.80
2023-03-16T01:51:45.332Z,2.23
2023-03-16T01:54:17.233Z,2.73
2023-03-16T01:56:48.110Z,2.70
2023-03-16T01:59:18.929Z,2.40
2023-03-16T02:01:49.486Z,2.20
2023-03-16T02:04:32.343Z,2.57
2023-03-16T02:07:04.687Z,3.33
2023-03-16T02:09:34.720Z,2.43
2023-03-16T02:12:04.311Z,1.97
2023-03-16T02:14:36.000Z,2.90
2023-03-16T02:17:05.323Z,2.60
2023-03-16T02:19:42.225Z,2.83
2023-03-16T02:22:14.060Z,2.80
2023-03-16T02:24:44.033Z,2.78
2023-03-16T02:27:14.869Z,2.53
2023-03-16T02:30:04.865Z,2.50
2023-03-16T02:32:43.514Z,2.93
2023-03-16T02:35:13.243Z,2.20
2023-03-16T02:37:44.139Z,2.77
2023-03-16T02:40:21.165Z,2.07
2023-03-16T02:42:54.756Z,2.27
2023-03-16T02:45:25.942Z,2.37
2023-03-16T02:47:57.825Z,2.20
2023-03-16T02:50:27.272Z,2.83
2023-03-16T02:52:56.648Z,2.77
2023-03-16T02:55:26.092Z,2.67
2023-03-16T02:57:55.284Z,2.63
2023-03-16T03:00:24.924Z,2.40
2023-03-16T03:02:54.604Z,2.30
2023-03-16T03:05:26.407Z,2.33
2023-03-16T03:07:55.664Z,2.25
2023-03-16T03:10:25.034Z,2.13
2023-03-16T03:12:54.260Z,2.10
2023-03-16T03:15:23.761Z,2.40
2023-03-16T03:18:14.638Z,2.30
2023-03-16T03:20:46.570Z,2.43
2023-03-16T03:23:16.405Z,3.03
2023-03-16T03:25:45.828Z,2.07
2023-03-16T03:28:15.802Z,2.80
2023-03-16T03:30:45.642Z,2.40
2023-03-16T03:33:14.892Z,3.07
2023-03-16T03:35:46.705Z,2.70
2023-03-16T03:38:15.962Z,2.22
2023-03-16T03:40:47.286Z,2.07
2023-03-16T03:43:16.524Z,2.00
2023-03-16T03:45:47.665Z,2.43
2023-03-16T03:48:17.526Z,2.60
2023-03-16T03:50:50.533Z,1.60
2023-03-16T03:53:39.981Z,1.83
2023-03-16T03:56:22.726Z,2.65
2023-03-16T03:58:52.103Z,2.00
2023-03-16T04:01:32.410Z,2.20
2023-03-16T04:04:01.597Z,2.10
2023-03-16T04:06:33.451Z,2.20
2023-03-16T04:09:02.713Z,2.05
2023-03-16T04:11:32.355Z,1.80
2023-03-16T04:14:01.538Z,2.10
2023-03-16T04:16:30.899Z,1.77
2023-03-16T04:19:00.340Z,2.00
2023-03-16T04:21:29.979Z,1.77
2023-03-16T04:24:04.531Z,2.10
2023-03-16T04:26:36.945Z,2.30
2023-03-16T04:29:07.192Z,2.10
2023-03-16T04:31:37.239Z,1.80
2023-03-16T04:34:07.015Z,1.90
2023-03-16T04:36:36.574Z,2.10
2023-03-16T04:39:08.995Z,2.10
2023-03-16T04:41:38.223Z,2.05
2023-03-16T04:44:16.379Z,1.77
2023-03-16T04:46:46.191Z,2.37
2023-03-16T04:49:15.926Z,1.80
2023-03-16T04:51:47.264Z,2.30
2023-03-16T04:54:22.694Z,1.90
2023-03-16T04:56:52.458Z,1.60
2023-03-16T04:59:34.059Z,1.75
2023-03-16T05:02:10.999Z,2.20
2023-03-16T05:04:40.459Z,1.90
2023-03-16T05:07:13.158Z,1.83
2023-03-16T05:12:18.084Z,1.67
2023-03-16T05:14:49.234Z,1.80
2023-03-16T05:17:40.003Z,1.80
2023-03-16T05:20:14.621Z,1.90
2023-03-16T05:22:48.833Z,2.10
2023-03-16T05:25:33.283Z,1.70
2023-03-16T05:28:08.741Z,1.80
2023-03-16T05:30:45.208Z,2.33
2023-03-16T05:33:18.696Z,2.47
2023-03-16T05:35:53.116Z,2.07
2023-03-16T05:38:23.066Z,2.03
2023-03-16T05:40:53.274Z,2.10
2023-03-16T05:43:57.471Z,3.10
2023-03-16T05:46:31.052Z,2.70
2023-03-16T05:49:00.470Z,2.87
2023-03-16T05:51:29.692Z,2.57
2023-03-16T05:53:59.234Z,2.20
2023-03-16T05:56:35.546Z,2.07
2023-03-16T05:59:07.437Z,2.20
2023-03-16T06:01:37.438Z,2.47
2023-03-16T06:04:07.620Z,2.57
2023-03-16T06:06:41.411Z,2.13
2023-03-16T06:09:20.895Z,2.53
2023-03-16T06:11:50.210Z,2.13
2023-03-16T06:14:23.972Z,2.07
2023-03-16T06:16:54.785Z,1.80
2023-03-16T06:19:24.731Z,2.30
2023-03-16T06:21:59.644Z,2.17
2023-03-16T06:24:30.022Z,1.87
2023-03-16T06:26:59.289Z,2.07
2023-03-16T06:29:37.662Z,2.30
2023-03-16T06:32:07.584Z,2.13
2023-03-16T06:34:38.224Z,1.97
2023-03-16T06:37:08.542Z,2.20
2023-03-16T06:39:37.861Z,2.03
2023-03-16T06:42:07.253Z,1.70
2023-03-16T06:44:39.768Z,2.77
2023-03-16T06:47:12.215Z,2.67
2023-03-16T06:49:41.471Z,2.63
2023-03-16T06:52:18.015Z,1.80
2023-03-16T06:54:47.670Z,2.63
2023-03-16T06:57:18.341Z,2.40
2023-03-16T06:59:51.012Z,2.10
2023-03-16T07:02:22.468Z,2.05
2023-03-16T07:04:52.030Z,2.20
2023-03-16T07:07:21.936Z,2.40
2023-03-16T07:09:51.834Z,2.63
2023-03-16T07:12:21.197Z,2.60
2023-03-16T07:14:54.193Z,2.37
2023-03-16T07:17:26.704Z,2.53
2023-03-16T07:19:55.997Z,2.70
2023-03-16T07:22:25.920Z,2.47
2023-03-16T07:24:57.461Z,2.60
2023-03-16T07:27:29.268Z,2.20
2023-03-16T07:30:04.679Z,2.53
2023-03-16T07:32:34.941Z,2.40
2023-03-16T07:35:04.191Z,2.47
2023-03-16T07:37:35.114Z,2.83
2023-03-16T07:40:09.176Z,2.17
2023-03-16T07:42:38.820Z,2.30
2023-03-16T07:45:15.408Z,2.47
2023-03-16T07:47:45.611Z,2.73
2023-03-16T07:50:26.392Z,2.23
2023-03-16T07:52:55.982Z,2.60
2023-03-16T07:55:25.835Z,2.43
2023-03-16T07:57:56.105Z,3.10
2023-03-16T08:00:34.410Z,2.30
2023-03-16T08:03:03.678Z,2.17
2023-03-16T08:05:33.327Z,1.77
2023-03-16T08:08:09.214Z,1.90
2023-03-16T08:10:39.512Z,2.57
2023-03-16T08:13:14.045Z,1.67
2023-03-16T08:15:55.978Z,1.90
2023-03-16T08:18:30.994Z,1.77
2023-03-16T08:21:00.596Z,2.13
2023-03-16T08:23:30.756Z,1.80
2023-03-16T08:26:01.401Z,1.60
2023-03-16T08:28:31.950Z,1.30
2023-03-16T08:31:06.057Z,1.85
2023-03-16T08:33:53.885Z,1.37
2023-03-16T08:36:27.845Z,1.43
2023-03-16T08:39:06.548Z,1.33
2023-03-16T08:41:41.608Z,1.50
2023-03-16T08:44:20.163Z,1.50
2023-03-16T08:46:52.708Z,1.53
2023-03-16T08:49:24.087Z,1.93
2023-03-16T08:52:01.543Z,1.20
2023-03-16T08:54:32.432Z,1.90
2023-03-16T08:57:01.702Z,1.50
2023-03-16T08:59:31.325Z,2.03
2023-03-16T09:02:04.442Z,2.33
2023-03-16T09:04:33.846Z,1.60
2023-03-16T09:07:08.797Z,1.60
2023-03-16T09:09:39.810Z,1.57
2023-03-16T09:12:09.285Z,1.27
2023-03-16T09:14:38.700Z,1.60
2023-03-16T09:17:11.830Z,1.30
2023-03-16T09:19:51.036Z,1.60
2023-03-16T09:22:21.177Z,1.60
2023-03-16T09:24:51.400Z,1.80
2023-03-16T09:27:21.231Z,1.43
2023-03-16T09:29:53.090Z,1.20
2023-03-16T09:32:25.583Z,1.48
2023-03-16T09:34:54.844Z,1.63
2023-03-16T09:37:24.200Z,1.27
2023-03-16T09:39:57.951Z,1.60
2023-03-16T09:42:32.610Z,1.10
2023-03-16T09:45:05.615Z,1.10
2023-03-16T09:47:38.650Z,1.97
2023-03-16T09:50:09.838Z,1.07
2023-03-16T09:52:44.798Z,1.40
2023-03-16T09:55:18.422Z,1.50
2023-03-16T09:57:47.774Z,1.47
2023-03-16T10:00:19.392Z,1.20
2023-03-16T10:02:59.534Z,1.47
2023-03-16T10:05:29.418Z,1.10
2023-03-16T10:08:04.783Z,1.60
2023-03-16T10:10:41.061Z,1.23
2023-03-16T10:13:15.899Z,1.17
2023-03-16T10:15:45.877Z,1.20
2023-03-16T10:18:19.834Z,1.10
2023-03-16T10:20:49.465Z,1.13
2023-03-16T10:23:20.798Z,1.27
2023-03-16T10:25:50.864Z,1.20
2023-03-16T10:28:21.094Z,1.13
2023-03-16T10:30:50.681Z,1.17
2023-03-16T19:58:39.639Z,1.60
2023-03-16T20:01:09.394Z,1.70
2023-03-16T20:03:39.136Z,1.70
2023-03-16T20:06:12.501Z,1.60
2023-03-16T20:08:41.900Z,1.60
2023-03-16T20:18:55.740Z,1.90
2023-03-16T20:21:28.022Z,2.70
2023-03-16T20:23:57.238Z,2.10
2023-03-16T20:31:34.488Z,2.20
2023-03-16T20:59:14.577Z,2.10
2023-03-16T21:01:45.664Z,1.60
2023-03-16T21:04:22.484Z,2.07
2023-03-16T22:12:03.218Z,1.97
2023-03-16T22:14:32.426Z,1.90
2023-03-16T22:17:01.861Z,2.13
2023-03-16T22:50:02.273Z,1.85
2023-03-16T22:52:33.260Z,2.30
2023-03-16T22:55:05.955Z,2.00
2023-03-16T22:57:35.272Z,1.90
2023-03-16T23:00:11.278Z,2.23
2023-03-16T23:18:02.776Z,2.10
2023-03-16T23:20:32.913Z,2.10
2023-03-16T23:23:02.275Z,2.30
2023-03-16T23:25:34.109Z,2.00
2023-03-16T23:28:04.223Z,1.92
2023-03-16T23:30:34.827Z,1.90
2023-03-16T23:33:04.149Z,2.30
2023-03-16T23:35:33.824Z,2.03
2023-03-16T23:38:03.003Z,2.30
